createdAt,value
2022-12-17T00:01:07.888Z,24.33
2022-12-17T00:03:56.758Z,25.63
2022-12-17T00:06:43.617Z,25.90
2022-12-17T00:09:30.134Z,25.85
2022-12-17T00:12:16.693Z,24.85
2022-12-17T00:15:03.237Z,26.27
2022-12-17T00:17:50.225Z,28.20
2022-12-17T00:20:36.766Z,24.10
2022-12-17T00:23:24.498Z,25.42
2022-12-17T00:26:12.296Z,25.35
2022-12-17T00:28:58.968Z,27.10
2022-12-17T00:31:47.120Z,26.48
2022-12-17T00:34:33.732Z,23.50
2022-12-17T00:37:20.300Z,25.13
2022-12-17T00:40:06.854Z,27.27
2022-12-17T00:42:53.390Z,23.17
2022-12-17T00:45:42.913Z,26.25
2022-12-17T00:48:29.491Z,22.85
2022-12-17T00:51:16.073Z,24.90
2022-12-17T00:54:02.694Z,25.02
2022-12-17T00:56:49.254Z,23.38
2022-12-17T00:59:35.870Z,21.98
2022-12-17T01:02:22.506Z,24.35
2022-12-17T01:05:09.148Z,27.52
2022-12-17T01:07:56.466Z,24.80
2022-12-17T01:10:43.129Z,24.45
2022-12-17T01:13:33.861Z,25.65
2022-12-17T01:16:23.731Z,22.85
2022-12-17T01:19:10.597Z,26.08
2022-12-17T01:21:57.555Z,24.65
2022-12-17T01:24:44.322Z,24.10
2022-12-17T01:27:31.081Z,27.05
2022-12-17T01:30:17.623Z,26.05
2022-12-17T01:33:04.274Z,26.08
2022-12-17T01:35:50.879Z,27.30
2022-12-17T01:38:39.125Z,25.75
2022-12-17T01:41:25.885Z,25.80
2022-12-17T01:44:12.586Z,27.50
2022-12-17T01:47:01.906Z,26.45
2022-12-17T01:49:48.510Z,23.30
2022-12-17T01:52:35.506Z,23.52
2022-12-17T01:55:23.961Z,24.80
2022-12-17T01:58:10.529Z,25.50
2022-12-17T02:00:57.139Z,25.38
2022-12-17T02:03:43.809Z,27.05
2022-12-17T02:06:36.047Z,24.85
2022-12-17T02:09:51.936Z,24.08
2022-12-17T02:12:45.232Z,25.42
2022-12-17T02:15:37.535Z,23.13
2022-12-17T02:18:27.842Z,25.98
2022-12-17T02:21:14.381Z,23.13
2022-12-17T02:27:17.451Z,24.92
2022-12-17T02:30:06.635Z,21.37
2022-12-17T02:32:53.809Z,21.83
2022-12-17T02:35:44.126Z,26.45
2022-12-17T02:41:16.963Z,25.95
2022-12-17T02:44:03.497Z,26.77
2022-12-17T02:46:50.032Z,25.20
2022-12-17T02:49:36.561Z,25.63
2022-12-17T02:52:29.523Z,25.77
2022-12-17T02:55:19.891Z,24.75
2022-12-17T02:58:06.489Z,25.05
2022-12-17T03:00:53.051Z,26.95
2022-12-17T03:03:39.932Z,27.85
2022-12-17T03:06:26.850Z,27.58
2022-12-17T03:09:13.393Z,26.83
2022-12-17T03:11:59.918Z,28.30
2022-12-17T03:14:46.699Z,26.70
2022-12-17T03:17:33.318Z,25.67
2022-12-17T03:20:19.914Z,25.75
2022-12-17T03:23:06.454Z,26.88
2022-12-17T03:25:53.002Z,30.17
2022-12-17T03:28:39.511Z,30.00
2022-12-17T03:31:26.154Z,25.83
2022-12-17T03:34:12.744Z,25.90
2022-12-17T03:36:59.290Z,26.48
2022-12-17T03:39:45.855Z,28.35
2022-12-17T03:42:32.396Z,25.05
2022-12-17T03:45:18.917Z,29.67
2022-12-17T03:48:05.449Z,26.65
2022-12-17T03:50:51.984Z,24.67
2022-12-17T03:53:38.895Z,27.25
2022-12-17T03:56:25.816Z,29.40
2022-12-17T03:59:12.348Z,28.38
2022-12-17T04:01:58.976Z,26.75
2022-12-17T04:04:45.533Z,26.48
2022-12-17T04:07:32.054Z,26.48
2022-12-17T04:10:18.582Z,26.23
2022-12-17T04:13:05.123Z,27.88
2022-12-17T04:15:51.745Z,26.83
2022-12-17T04:18:38.317Z,27.00
2022-12-17T04:21:24.948Z,29.27
2022-12-17T04:24:11.681Z,24.58
2022-12-17T04:26:58.207Z,29.73
2022-12-17T04:29:44.790Z,25.92
2022-12-17T04:32:35.236Z,27.20
2022-12-17T04:35:22.153Z,27.73
2022-12-17T04:38:08.715Z,25.35
2022-12-17T04:40:55.220Z,24.83
2022-12-17T04:43:41.764Z,28.85
2022-12-17T04:46:28.379Z,30.92
2022-12-17T04:49:15.021Z,30.30
2022-12-17T04:52:01.635Z,27.70
2022-12-17T04:54:48.191Z,27.13
2022-12-17T04:57:34.709Z,27.35
2022-12-17T05:00:21.228Z,27.45
2022-12-17T05:03:07.780Z,27.58
2022-12-17T05:05:54.345Z,25.00
2022-12-17T05:08:41.731Z,29.17
2022-12-17T05:11:28.395Z,30.33
2022-12-17T05:14:14.904Z,28.95
2022-12-17T05:17:01.421Z,29.88
2022-12-17T05:19:50.996Z,30.90
2022-12-17T05:22:37.498Z,30.33
2022-12-17T05:25:24.227Z,29.63
2022-12-17T05:28:10.742Z,28.35
2022-12-17T05:31:00.446Z,34.08
2022-12-17T05:33:47.000Z,27.88
2022-12-17T05:36:33.572Z,31.23
2022-12-17T05:39:20.098Z,33.22
2022-12-17T05:42:06.619Z,27.63
2022-12-17T05:44:53.271Z,29.08
2022-12-17T05:47:39.871Z,31.33
2022-12-17T05:50:26.532Z,29.80
2022-12-17T05:53:13.085Z,29.70
2022-12-17T05:55:59.608Z,29.85
2022-12-17T05:58:46.151Z,27.73
2022-12-17T06:01:32.757Z,29.58
2022-12-17T06:04:19.376Z,28.77
2022-12-17T06:07:08.963Z,26.00
2022-12-17T06:09:55.485Z,27.70
2022-12-17T06:12:41.996Z,32.75
2022-12-17T06:15:28.781Z,26.60
2022-12-17T06:18:17.117Z,26.85
2022-12-17T06:21:04.107Z,24.95
2022-12-17T06:23:50.732Z,29.98
2022-12-17T06:26:37.295Z,27.77
2022-12-17T06:29:23.836Z,27.08
2022-12-17T06:32:10.472Z,27.42
2022-12-17T06:34:56.987Z,24.77
2022-12-17T06:37:43.503Z,24.13
2022-12-17T06:40:30.691Z,26.05
2022-12-17T06:43:17.296Z,24.38
2022-12-17T06:46:03.818Z,27.15
2022-12-17T06:48:50.340Z,24.75
2022-12-17T06:51:36.894Z,25.27
2022-12-17T06:54:23.473Z,25.35
2022-12-17T06:57:10.004Z,25.45
2022-12-17T06:59:56.535Z,22.70
2022-12-17T07:02:43.217Z,25.05
2022-12-17T07:05:29.961Z,27.48
2022-12-17T07:08:18.760Z,25.90
2022-12-17T07:11:05.305Z,28.83
2022-12-17T07:13:51.866Z,26.20
2022-12-17T07:16:38.507Z,28.67
2022-12-17T07:19:27.451Z,26.38
2022-12-17T07:22:14.360Z,23.40
2022-12-17T07:25:01.104Z,27.80
2022-12-17T07:27:47.639Z,24.85
2022-12-17T07:30:34.323Z,30.80
2022-12-17T07:33:25.577Z,24.83
2022-12-17T07:36:13.302Z,26.27
2022-12-17T07:39:00.283Z,24.48
2022-12-17T07:41:46.842Z,25.70
2022-12-17T07:44:33.357Z,22.08
2022-12-17T07:47:19.869Z,21.73
2022-12-17T07:50:06.379Z,24.75
2022-12-17T07:52:53.001Z,22.63
2022-12-17T07:55:39.560Z,25.48
2022-12-17T07:58:28.927Z,23.80
2022-12-17T08:01:16.084Z,21.38
2022-12-17T08:04:02.669Z,21.75
2022-12-17T08:06:49.217Z,24.52
2022-12-17T08:09:35.845Z,22.58
2022-12-17T08:12:22.385Z,21.42
2022-12-17T08:15:08.938Z,21.23
2022-12-17T08:17:55.591Z,22.45
2022-12-17T08:20:42.275Z,22.35
2022-12-17T08:23:28.827Z,24.13
2022-12-17T08:26:15.383Z,21.23
2022-12-17T08:29:01.932Z,22.15
2022-12-17T08:31:48.548Z,22.55
2022-12-17T08:34:35.141Z,24.30
2022-12-17T08:37:21.665Z,23.83
2022-12-17T08:40:08.156Z,21.67
2022-12-17T08:42:54.752Z,22.42
2022-12-17T08:45:41.520Z,24.52
2022-12-17T08:48:28.363Z,23.23
2022-12-17T08:51:14.888Z,23.30
2022-12-17T08:54:01.413Z,22.73
2022-12-17T08:56:48.088Z,22.58
2022-12-17T08:59:34.703Z,22.88
2022-12-17T09:02:21.518Z,21.90
2022-12-17T09:05:08.244Z,23.98
2022-12-17T09:07:54.829Z,23.67
2022-12-17T09:10:41.389Z,23.67
2022-12-17T09:13:27.908Z,24.40
2022-12-17T09:16:14.657Z,21.02
2022-12-17T09:19:01.842Z,24.83
2022-12-17T09:21:49.263Z,24.30
2022-12-17T09:24:35.993Z,22.42
2022-12-17T09:27:22.505Z,22.88
2022-12-17T09:30:09.028Z,22.60
2022-12-17T09:32:58.635Z,21.50
2022-12-17T09:35:45.176Z,24.08
2022-12-17T09:38:32.625Z,23.02
2022-12-17T09:41:54.012Z,23.95
2022-12-17T09:44:57.164Z,22.73
2022-12-17T09:48:10.118Z,21.42
2022-12-17T09:50:56.708Z,23.65
2022-12-17T09:53:51.146Z,23.00
2022-12-17T09:56:37.810Z,21.23
2022-12-17T09:59:24.317Z,21.60
2022-12-17T10:02:11.342Z,20.23
2022-12-17T10:05:01.019Z,20.45
2022-12-17T10:07:53.020Z,22.15
2022-12-17T10:10:44.406Z,21.02
2022-12-17T10:13:34.265Z,21.38
2022-12-17T10:16:21.306Z,19.42
2022-12-17T10:19:07.951Z,20.67
2022-12-17T10:21:54.463Z,22.08
2022-12-17T10:24:41.017Z,21.52
2022-12-17T10:27:29.951Z,17.45
2022-12-17T10:30:16.549Z,18.77
2022-12-17T10:33:03.147Z,17.77
2022-12-17T10:35:56.950Z,20.88
2022-12-17T10:38:47.880Z,20.73
2022-12-17T10:44:20.449Z,22.20
2022-12-17T10:47:07.064Z,17.10
2022-12-17T10:49:53.582Z,21.55
2022-12-17T10:52:49.684Z,21.30
2022-12-17T10:55:48.123Z,19.35
2022-12-17T10:58:49.726Z,20.15
2022-12-17T11:01:41.924Z,20.80
2022-12-17T11:04:49.364Z,21.45
2022-12-17T11:07:41.896Z,20.75
2022-12-17T11:10:36.329Z,20.73
2022-12-17T11:13:24.980Z,20.05
2022-12-17T11:16:13.569Z,21.80
2022-12-17T11:19:18.547Z,24.95
2022-12-17T11:22:07.543Z,23.35
2022-12-17T11:25:15.381Z,20.23
2022-12-17T11:28:05.784Z,19.75
2022-12-17T11:30:52.591Z,20.10
2022-12-17T11:33:45.558Z,20.42
2022-12-17T11:36:43.136Z,23.98
2022-12-17T11:39:48.939Z,23.92
2022-12-17T11:42:47.573Z,21.20
2022-12-17T11:45:56.112Z,24.85
2022-12-17T11:48:52.367Z,20.75
2022-12-17T11:51:44.009Z,20.80
2022-12-17T11:57:17.552Z,26.27
2022-12-17T12:00:13.605Z,24.87
2022-12-17T12:06:15.261Z,22.73
2022-12-17T12:09:26.136Z,23.48
2022-12-17T12:12:18.559Z,23.63
2022-12-17T12:21:09.410Z,27.40
2022-12-17T12:24:34.755Z,23.27
2022-12-17T12:27:50.633Z,27.52
2022-12-17T12:30:40.340Z,22.80
2022-12-17T12:33:51.593Z,21.30
2022-12-17T12:36:39.501Z,22.00
2022-12-17T12:39:26.050Z,21.02
2022-12-17T12:42:18.036Z,21.13
2022-12-17T12:45:26.476Z,23.75
2022-12-17T12:48:19.474Z,21.65
2022-12-17T12:51:14.344Z,23.08
2022-12-17T12:54:00.895Z,22.30
2022-12-17T12:56:54.126Z,23.15
2022-12-17T12:59:49.309Z,24.00
2022-12-17T13:02:47.859Z,26.15
2022-12-17T13:08:27.848Z,25.65
2022-12-17T13:10:54.639Z,26.50
2022-12-17T13:13:30.252Z,29.67
2022-12-17T13:16:01.936Z,28.98
2022-12-17T13:18:32.386Z,27.48
2022-12-17T13:21:05.929Z,28.63
2022-12-17T13:23:34.782Z,24.73
2022-12-17T13:26:14.702Z,28.80
2022-12-17T13:28:41.520Z,28.45
2022-12-17T13:31:18.348Z,26.50
2022-12-17T13:34:01.965Z,24.58
2022-12-17T13:36:51.963Z,24.55
2022-12-17T13:39:38.204Z,24.40
2022-12-17T13:42:05.202Z,27.00
2022-12-17T13:44:38.681Z,26.13
2022-12-17T13:47:05.331Z,29.60
2022-12-17T13:49:32.093Z,27.27
2022-12-17T13:52:19.259Z,29.48
2022-12-17T13:54:45.844Z,28.10
2022-12-17T13:57:27.461Z,27.27
2022-12-17T13:59:55.686Z,28.87
2022-12-17T14:02:32.133Z,30.65
2022-12-17T14:05:05.807Z,29.80
2022-12-17T14:07:35.238Z,32.80
2022-12-17T14:10:02.531Z,29.70
2022-12-17T14:12:29.929Z,32.00
2022-12-17T14:14:59.023Z,33.33
2022-12-17T14:17:42.504Z,31.55
2022-12-17T14:20:13.924Z,30.20
2022-12-17T14:22:49.434Z,29.47
2022-12-17T14:25:21.894Z,31.75
2022-12-17T14:28:01.173Z,32.28
2022-12-17T14:31:17.384Z,30.13
2022-12-17T14:33:31.678Z,29.95
2022-12-17T14:35:59.691Z,31.48
2022-12-17T14:38:37.943Z,28.45
2022-12-17T14:41:31.866Z,29.02
2022-12-17T14:43:59.481Z,29.50
2022-12-17T14:46:26.328Z,35.67
2022-12-17T14:49:00.707Z,30.58
2022-12-17T14:51:34.813Z,28.88
2022-12-17T14:57:05.290Z,30.40
2022-12-17T15:04:46.025Z,32.35
2022-12-17T15:07:17.871Z,33.35
2022-12-17T15:09:45.048Z,40.28
2022-12-17T15:12:11.676Z,32.05
2022-12-17T15:14:38.310Z,34.33
2022-12-17T15:17:05.771Z,34.95
2022-12-17T15:19:32.537Z,33.80
2022-12-17T15:21:59.207Z,33.13
2022-12-17T15:24:25.814Z,33.78
2022-12-17T15:26:52.626Z,34.67
2022-12-17T15:29:19.326Z,33.15
2022-12-17T15:31:46.131Z,32.17
2022-12-17T15:34:12.849Z,34.00
2022-12-17T15:36:39.441Z,35.80
2022-12-17T15:39:07.000Z,35.15
2022-12-17T15:41:53.600Z,32.67
2022-12-17T15:44:20.226Z,43.40
2022-12-17T15:46:46.927Z,66.78
2022-12-17T15:49:13.736Z,55.95
2022-12-17T15:51:40.394Z,47.33
2022-12-17T15:54:06.973Z,36.47
2022-12-17T15:56:34.759Z,35.08
2022-12-17T15:59:01.413Z,43.17
2022-12-17T16:01:28.243Z,37.10
2022-12-17T16:03:54.978Z,42.00
2022-12-17T16:06:21.625Z,41.05
2022-12-17T16:08:48.219Z,42.20
2022-12-17T16:11:15.966Z,38.42
2022-12-17T16:13:42.599Z,36.83
2022-12-17T16:16:09.996Z,32.10
2022-12-17T16:18:38.455Z,35.55
2022-12-17T16:21:06.664Z,33.15
2022-12-17T16:23:33.562Z,32.80
2022-12-17T16:26:01.445Z,34.20
2022-12-17T16:28:28.278Z,33.58
2022-12-17T16:33:38.454Z,35.65
2022-12-17T16:36:05.828Z,33.72
2022-12-17T16:38:32.717Z,37.15
2022-12-17T16:41:00.416Z,34.22
2022-12-17T16:43:27.745Z,32.72
2022-12-17T16:45:54.471Z,34.03
2022-12-17T16:48:21.931Z,34.88
2022-12-17T16:50:48.796Z,34.13
2022-12-17T16:53:15.629Z,36.85
2022-12-17T16:55:43.362Z,35.95
2022-12-17T16:58:10.149Z,35.45
2022-12-17T17:00:37.061Z,34.72
2022-12-17T17:03:05.152Z,30.58
2022-12-17T17:05:32.948Z,33.28
2022-12-17T17:07:59.831Z,33.65
2022-12-17T17:10:26.649Z,33.60
2022-12-17T17:12:53.564Z,31.30
2022-12-17T17:15:20.229Z,29.92
2022-12-17T17:17:55.565Z,31.73
2022-12-17T17:20:22.753Z,24.58
2022-12-17T17:22:49.462Z,26.38
2022-12-17T17:25:16.140Z,31.80
2022-12-17T17:27:42.793Z,28.95
2022-12-17T17:30:10.071Z,27.05
2022-12-17T17:32:36.911Z,27.65
2022-12-17T17:35:03.976Z,26.13
2022-12-17T17:37:30.608Z,26.80
2022-12-17T17:39:57.346Z,23.02
2022-12-17T17:42:24.139Z,23.30
2022-12-17T17:44:51.298Z,23.98
2022-12-17T17:47:17.899Z,22.80
2022-12-17T17:49:44.612Z,22.88
2022-12-17T17:52:12.027Z,23.50
2022-12-17T17:54:39.633Z,21.58
2022-12-17T17:57:06.579Z,22.50
2022-12-17T17:59:34.387Z,25.23
2022-12-17T18:02:01.900Z,25.33
2022-12-17T18:04:28.699Z,24.00
2022-12-17T18:09:41.991Z,23.92
2022-12-17T18:12:28.540Z,24.98
2022-12-17T18:15:13.657Z,23.33
2022-12-17T18:17:40.661Z,26.55
2022-12-17T18:20:09.452Z,28.15
2022-12-17T18:22:36.058Z,29.13
2022-12-17T18:25:02.890Z,28.75
2022-12-17T18:27:29.498Z,31.35
2022-12-17T18:29:56.383Z,29.67
2022-12-17T18:32:23.107Z,27.05
2022-12-17T18:34:49.957Z,30.45
2022-12-17T18:37:16.596Z,28.33
2022-12-17T18:39:43.382Z,27.17
2022-12-17T18:42:29.974Z,31.23
2022-12-17T18:44:56.558Z,29.80
2022-12-17T18:47:23.207Z,28.48
2022-12-17T18:49:49.928Z,31.00
2022-12-17T18:52:17.477Z,29.58
2022-12-17T18:54:44.331Z,32.40
2022-12-17T18:57:11.062Z,33.20
2022-12-17T18:59:40.497Z,33.40
2022-12-17T19:02:11.259Z,31.75
2022-12-17T19:04:37.972Z,33.28
2022-12-17T19:07:04.941Z,32.53
2022-12-17T19:09:35.451Z,32.92
2022-12-17T19:12:03.498Z,30.10
2022-12-17T19:14:30.147Z,29.17
2022-12-17T19:16:57.822Z,27.27
2022-12-17T19:19:24.651Z,29.88
2022-12-17T19:21:53.466Z,29.33
2022-12-17T19:24:21.159Z,33.88
2022-12-17T19:26:48.032Z,35.10
2022-12-17T19:29:15.204Z,32.58
2022-12-17T19:31:41.885Z,31.55
2022-12-17T19:34:15.531Z,33.25
2022-12-17T19:36:42.540Z,33.58
2022-12-17T19:39:11.626Z,33.83
2022-12-17T19:41:38.305Z,33.10
2022-12-17T19:44:07.015Z,28.80
2022-12-17T19:46:34.455Z,30.00
2022-12-17T19:49:01.403Z,29.00
2022-12-17T19:51:29.089Z,28.95
2022-12-17T19:53:55.876Z,32.00
2022-12-17T19:56:24.427Z,34.33
2022-12-17T19:58:52.540Z,34.45
2022-12-17T20:01:22.090Z,32.67
2022-12-17T20:03:48.886Z,33.53
2022-12-17T20:06:16.705Z,32.58
2022-12-17T20:08:43.642Z,35.15
2022-12-17T20:11:31.591Z,32.63
2022-12-17T20:14:18.572Z,28.83
2022-12-17T20:16:47.137Z,29.13
2022-12-17T20:19:16.799Z,32.13
2022-12-17T20:21:43.386Z,24.98
2022-12-17T20:24:10.420Z,25.83
2022-12-17T20:26:37.109Z,24.25
2022-12-17T20:29:04.559Z,26.58
2022-12-17T20:31:31.490Z,26.52
2022-12-17T20:34:01.985Z,25.50
2022-12-17T20:36:28.703Z,27.98
2022-12-17T20:38:55.354Z,28.33
2022-12-17T20:41:23.631Z,24.63
2022-12-17T20:43:50.513Z,26.10
2022-12-17T20:46:17.835Z,27.25
2022-12-17T20:48:44.835Z,24.50
2022-12-17T20:51:13.886Z,24.58
2022-12-17T20:53:40.608Z,28.33
2022-12-17T20:56:09.441Z,24.27
2022-12-17T20:58:36.649Z,22.80
2022-12-17T21:01:06.240Z,25.33
2022-12-17T21:03:33.381Z,24.10
2022-12-17T21:06:32.442Z,24.08
2022-12-17T21:08:59.153Z,21.50
2022-12-17T21:11:26.677Z,22.50
2022-12-17T21:13:53.638Z,24.63
2022-12-17T21:16:23.610Z,21.05
2022-12-17T21:18:54.117Z,21.88
2022-12-17T21:21:25.471Z,19.75
2022-12-17T21:23:52.376Z,20.07
2022-12-17T21:26:22.313Z,21.13
2022-12-17T21:28:51.562Z,19.17
2022-12-17T21:31:21.495Z,20.65
2022-12-17T21:33:48.566Z,20.73
2022-12-17T21:36:16.583Z,19.63
2022-12-17T21:38:43.408Z,19.83
2022-12-17T21:41:12.183Z,18.67
2022-12-17T21:43:39.611Z,19.85
2022-12-17T21:46:07.553Z,19.63
2022-12-17T21:48:41.390Z,20.48
2022-12-17T21:51:10.313Z,19.52
2022-12-17T21:53:41.833Z,20.33
2022-12-17T21:56:10.439Z,18.02
2022-12-17T21:58:37.817Z,20.13
2022-12-17T22:01:09.905Z,20.27
2022-12-17T22:03:45.034Z,20.90
2022-12-17T22:06:13.693Z,23.13
2022-12-17T22:08:41.287Z,21.80
2022-12-17T22:11:14.210Z,22.40
2022-12-17T22:14:08.548Z,22.45
2022-12-17T22:16:39.741Z,19.92
2022-12-17T22:19:07.505Z,20.15
2022-12-17T22:21:35.148Z,20.20
2022-12-17T22:24:01.960Z,18.33
2022-12-17T22:26:28.762Z,20.98
2022-12-17T22:28:55.406Z,19.70
2022-12-17T22:31:42.304Z,19.63
2022-12-17T22:35:13.612Z,21.75
2022-12-17T22:39:20.939Z,23.20
2022-12-17T22:44:22.553Z,24.15
2022-12-17T22:44:41.672Z,22.98
2022-12-17T22:45:39.554Z,22.50
2022-12-17T22:48:07.197Z,19.20
2022-12-17T22:50:45.596Z,19.63
2022-12-17T22:53:21.501Z,24.65
2022-12-17T22:55:48.831Z,20.35
2022-12-17T22:58:15.605Z,20.17
2022-12-17T23:00:42.238Z,20.88
2022-12-17T23:03:08.911Z,20.35
2022-12-17T23:05:35.629Z,22.02
2022-12-17T23:08:02.442Z,19.52
2022-12-17T23:10:29.299Z,20.25
2022-12-17T23:12:56.047Z,19.92
2022-12-17T23:15:33.156Z,21.02
2022-12-17T23:18:00.942Z,19.77
2022-12-17T23:20:29.577Z,19.75
2022-12-17T23:22:56.577Z,22.85
2022-12-17T23:25:23.424Z,19.80
2022-12-17T23:27:50.211Z,19.17
2022-12-17T23:30:16.987Z,24.48
2022-12-17T23:32:43.696Z,22.95
2022-12-17T23:35:10.563Z,23.80
2022-12-17T23:37:40.065Z,24.63
2022-12-17T23:40:11.518Z,22.95
2022-12-17T23:42:38.325Z,22.67
2022-12-17T23:45:05.988Z,23.05
2022-12-17T23:47:32.599Z,21.83
2022-12-17T23:49:59.268Z,21.15
2022-12-17T23:52:25.878Z,21.98
2022-12-17T23:54:52.493Z,20.70
2022-12-17T23:57:19.257Z,20.17
2022-12-17T23:59:45.855Z,23.27
